^^
Station Historical Data
Daily Summary for August 31, 2017 Units:  Both    English   Metric
« Previous Day
Next Day »
Daily Weekly Monthly Yearly Custom
  High: Low: Average:
Temperature: TemperatureF °F /  -17.8 °C 49.8 °F /  9.9 °C 66.1 °F /  18.9 °C
Dew Point: DewpointF °F /  -17.8 °C 20.5 °F /  -6.4 °C 25.8 °F /  -3.4 °C
Humidity: Humidity% 13% 23%
Wind Speed: WindSpeedMPHmph /  0km/h - 1mph /  1.6km/h
Wind Gust: WindSpeedGustMPHmph /  0km/h - -
Wind- - SW
Pressure: PressureIn in /  0 hPa 30.16 in /  1021.2 hPa -
Precipitation: 0.00 in /  0 mm    
Historical Graphs
 
 
Tabular Data for August 31, 2017
Time Temperature Dew Point Pressure Wind Wind Speed Wind Gust Humidity Rainfall Rate (Hourly) solar Conditions
TemperatureF °F /  -17.8 °C DewpointF °F /  -17.8 °C PressureInin /  0hPa Calm     Humidity% HourlyPrecipInin /  0mm SolarRadiationWatts/m^2 W/m2 Conditions
00:02 55.6 °F /  13.1 °C 22.1 °F /  -5.5 °C 30.22in /  1023.2hPa Calm     27% 0.00in /  0mm 0.0 W/m2
00:08 55.4 °F /  13 °C 21.9 °F /  -5.6 °C 30.22in /  1023.2hPa Calm     27% 0.00in /  0mm 0.0 W/m2
00:14 55.4 °F /  13 °C 21.9 °F /  -5.6 °C 30.22in /  1023.2hPa East 0.9mph /  1.4km/h 1.0mph /  1.6km/h 27% 0.00in /  0mm 0.0 W/m2
00:20 55.6 °F /  13.1 °C 21.2 °F /  -6 °C 30.22in /  1023.2hPa NE 0.9mph /  1.4km/h 3.0mph /  4.8km/h 26% 0.00in /  0mm 0.0 W/m2
00:26 55.8 °F /  13.2 °C 21.4 °F /  -5.9 °C 30.22in /  1023.2hPa East 0.9mph /  1.4km/h 1.0mph /  1.6km/h 26% 0.00in /  0mm 0.0 W/m2
00:32 55.8 °F /  13.2 °C 21.4 °F /  -5.9 °C 30.22in /  1023.2hPa Calm     26% 0.00in /  0mm 0.0 W/m2
00:38 55.6 °F /  13.1 °C 21.2 °F /  -6 °C 30.22in /  1023.2hPa Calm   3.0mph /  4.8km/h 26% 0.00in /  0mm 0.0 W/m2
00:45 55.4 °F /  13 °C 21.0 °F /  -6.1 °C 30.23in /  1023.6hPa Calm   1.0mph /  1.6km/h 26% 0.00in /  0mm 0.0 W/m2
00:51 55.0 °F /  12.8 °C 20.8 °F /  -6.2 °C 30.23in /  1023.6hPa Calm   1.0mph /  1.6km/h 26% 0.00in /  0mm 0.0 W/m2
00:57 54.9 °F /  12.7 °C 20.7 °F /  -6.3 °C 30.22in /  1023.2hPa Calm   1.0mph /  1.6km/h 26% 0.00in /  0mm 0.0 W/m2
01:03 54.9 °F /  12.7 °C 20.7 °F /  -6.3 °C 30.22in /  1023.2hPa Calm   2.0mph /  3.2km/h 26% 0.00in /  0mm 0.0 W/m2
01:09 54.7 °F /  12.6 °C 21.4 °F /  -5.9 °C 30.22in /  1023.2hPa Calm     27% 0.00in /  0mm 0.0 W/m2
01:15 54.7 °F /  12.6 °C 21.4 °F /  -5.9 °C 30.22in /  1023.2hPa Calm   1.0mph /  1.6km/h 27% 0.00in /  0mm 0.0 W/m2
01:17 54.7 °F /  12.6 °C 21.4 °F /  -5.9 °C 30.22in /  1023.2hPa Calm   1.0mph /  1.6km/h 27% 0.00in /  0mm 0.0 W/m2
01:24 54.7 °F /  12.6 °C 21.4 °F /  -5.9 °C 30.21in /  1022.9hPa Calm     27% 0.00in /  0mm 0.0 W/m2
01:30 54.7 °F /  12.6 °C 21.4 °F /  -5.9 °C 30.21in /  1022.9hPa Calm     27% 0.00in /  0mm 0.0 W/m2
01:36 54.5 °F /  12.5 °C 21.2 °F /  -6 °C 30.21in /  1022.9hPa Calm     27% 0.00in /  0mm 0.0 W/m2
01:42 54.1 °F /  12.3 °C 21.7 °F /  -5.7 °C 30.21in /  1022.9hPa Calm     28% 0.00in /  0mm 0.0 W/m2
01:48 54.1 °F /  12.3 °C 21.7 °F /  -5.7 °C 30.21in /  1022.9hPa Calm     28% 0.00in /  0mm 0.0 W/m2
01:54 53.8 °F /  12.1 °C 21.4 °F /  -5.9 °C 30.21in /  1022.9hPa Calm     28% 0.00in /  0mm 0.0 W/m2
02:00 53.4 °F /  11.9 °C 21.2 °F /  -6 °C 30.21in /  1022.9hPa Calm     28% 0.00in /  0mm 0.0 W/m2
02:06 53.1 °F /  11.7 °C 20.8 °F /  -6.2 °C 30.21in /  1022.9hPa Calm     28% 0.00in /  0mm 0.0 W/m2
02:12 52.9 °F /  11.6 °C 20.7 °F /  -6.3 °C 30.21in /  1022.9hPa Calm     28% 0.00in /  0mm 0.0 W/m2
02:19 52.9 °F /  11.6 °C 20.7 °F /  -6.3 °C 30.21in /  1022.9hPa Calm     28% 0.00in /  0mm 0.0 W/m2
02:25 52.9 °F /  11.6 °C 20.7 °F /  -6.3 °C 30.20in /  1022.6hPa Calm   2.0mph /  3.2km/h 28% 0.00in /  0mm 0.0 W/m2
02:31 52.9 °F /  11.6 °C 20.7 °F /  -6.3 °C 30.20in /  1022.6hPa Calm     28% 0.00in /  0mm 0.0 W/m2
02:37 52.7 °F /  11.5 °C 21.4 °F /  -5.9 °C 30.20in /  1022.6hPa Calm   1.0mph /  1.6km/h 29% 0.00in /  0mm 0.0 W/m2
02:43 52.7 °F /  11.5 °C 20.5 °F /  -6.4 °C 30.20in /  1022.6hPa Calm   1.0mph /  1.6km/h 28% 0.00in /  0mm 0.0 W/m2
02:49 52.9 °F /  11.6 °C 21.6 °F /  -5.8 °C 30.20in /  1022.6hPa Calm     29% 0.00in /  0mm 0.0 W/m2
02:55 52.9 °F /  11.6 °C 21.6 °F /  -5.8 °C 30.20in /  1022.6hPa Calm     29% 0.00in /  0mm 0.0 W/m2
03:02 52.9 °F /  11.6 °C 21.6 °F /  -5.8 °C 30.20in /  1022.6hPa Calm     29% 0.00in /  0mm 0.0 W/m2
03:08 52.5 °F /  11.4 °C 21.2 °F /  -6 °C 30.20in /  1022.6hPa Calm     29% 0.00in /  0mm 0.0 W/m2
03:14 52.3 °F /  11.3 °C 21.0 °F /  -6.1 °C 30.20in /  1022.6hPa Calm   1.0mph /  1.6km/h 29% 0.00in /  0mm 0.0 W/m2
03:20 52.2 °F /  11.2 °C 20.8 °F /  -6.2 °C 30.20in /  1022.6hPa Calm     29% 0.00in /  0mm 0.0 W/m2
03:26 52.2 °F /  11.2 °C 20.8 °F /  -6.2 °C 30.20in /  1022.6hPa Calm   1.0mph /  1.6km/h 29% 0.00in /  0mm 0.0 W/m2
03:32 52.0 °F /  11.1 °C 21.6 °F /  -5.8 °C 30.20in /  1022.6hPa Calm     30% 0.00in /  0mm 0.0 W/m2
03:39 51.8 °F /  11 °C 21.4 °F /  -5.9 °C 30.20in /  1022.6hPa Calm     30% 0.00in /  0mm 0.0 W/m2
03:45 51.6 °F /  10.9 °C 21.2 °F /  -6 °C 30.20in /  1022.6hPa Calm     30% 0.00in /  0mm 0.0 W/m2
03:51 51.4 °F /  10.8 °C 21.0 °F /  -6.1 °C 30.20in /  1022.6hPa Calm   1.0mph /  1.6km/h 30% 0.00in /  0mm 0.0 W/m2
03:57 51.4 °F /  10.8 °C 21.0 °F /  -6.1 °C 30.21in /  1022.9hPa Calm   2.0mph /  3.2km/h 30% 0.00in /  0mm 0.0 W/m2
04:03 51.6 °F /  10.9 °C 21.2 °F /  -6 °C 30.21in /  1022.9hPa Calm   1.0mph /  1.6km/h 30% 0.00in /  0mm 0.0 W/m2
04:09 51.4 °F /  10.8 °C 21.0 °F /  -6.1 °C 30.21in /  1022.9hPa Calm   1.0mph /  1.6km/h 30% 0.00in /  0mm 0.0 W/m2
04:17 51.4 °F /  10.8 °C 21.0 °F /  -6.1 °C 30.21in /  1022.9hPa Calm   2.0mph /  3.2km/h 30% 0.00in /  0mm 0.0 W/m2
04:24 51.6 °F /  10.9 °C 21.2 °F /  -6 °C 30.21in /  1022.9hPa Calm     30% 0.00in /  0mm 0.0 W/m2
04:30 52.0 °F /  11.1 °C 21.6 °F /  -5.8 °C 30.21in /  1022.9hPa Calm   2.0mph /  3.2km/h 30% 0.00in /  0mm 0.0 W/m2
04:36 52.0 °F /  11.1 °C 21.6 °F /  -5.8 °C 30.21in /  1022.9hPa Calm   1.0mph /  1.6km/h 30% 0.00in /  0mm 0.0 W/m2
04:42 52.0 °F /  11.1 °C 21.6 °F /  -5.8 °C 30.21in /  1022.9hPa Calm   1.0mph /  1.6km/h 30% 0.00in /  0mm 0.0 W/m2
04:48 52.2 °F /  11.2 °C 21.7 °F /  -5.7 °C 30.22in /  1023.2hPa Calm     30% 0.00in /  0mm 0.0 W/m2
04:54 52.2 °F /  11.2 °C 21.7 °F /  -5.7 °C 30.22in /  1023.2hPa Calm     30% 0.00in /  0mm 0.0 W/m2
05:01 52.2 °F /  11.2 °C 21.7 °F /  -5.7 °C 30.22in /  1023.2hPa Calm   1.0mph /  1.6km/h 30% 0.00in /  0mm 0.0 W/m2
05:07 52.2 °F /  11.2 °C 21.7 °F /  -5.7 °C 30.22in /  1023.2hPa Calm     30% 0.00in /  0mm 0.0 W/m2
05:13 51.6 °F /  10.9 °C 21.9 °F /  -5.6 °C 30.22in /  1023.2hPa Calm   1.0mph /  1.6km/h 31% 0.00in /  0mm 0.0 W/m2
05:19 51.4 °F /  10.8 °C 21.7 °F /  -5.7 °C 30.22in /  1023.2hPa Calm     31% 0.00in /  0mm 0.0 W/m2
05:25 51.4 °F /  10.8 °C 21.7 °F /  -5.7 °C 30.22in /  1023.2hPa Calm     31% 0.00in /  0mm 0.0 W/m2
05:31 51.1 °F /  10.6 °C 22.3 °F /  -5.4 °C 30.22in /  1023.2hPa Calm     32% 0.00in /  0mm 0.0 W/m2
05:37 50.9 °F /  10.5 °C 22.1 °F /  -5.5 °C 30.23in /  1023.6hPa Calm   1.0mph /  1.6km/h 32% 0.00in /  0mm 0.0 W/m2
05:43 50.9 °F /  10.5 °C 22.1 °F /  -5.5 °C 30.23in /  1023.6hPa Calm     32% 0.00in /  0mm 0.0 W/m2
05:49 50.5 °F /  10.3 °C 22.5 °F /  -5.3 °C 30.23in /  1023.6hPa Calm   1.0mph /  1.6km/h 33% 0.00in /  0mm 0.0 W/m2
05:56 50.5 °F /  10.3 °C 22.5 °F /  -5.3 °C 30.23in /  1023.6hPa Calm     33% 0.00in /  0mm 0.0 W/m2
06:02 50.4 °F /  10.2 °C 22.3 °F /  -5.4 °C 30.23in /  1023.6hPa Calm     33% 0.00in /  0mm 0.0 W/m2
06:08 49.8 °F /  9.9 °C 22.6 °F /  -5.2 °C 30.24in /  1023.9hPa Calm     34% 0.00in /  0mm 5.0 W/m2
06:14 49.8 °F /  9.9 °C 23.2 °F /  -4.9 °C 30.24in /  1023.9hPa Calm     35% 0.00in /  0mm 9.0 W/m2
06:22 49.8 °F /  9.9 °C 22.6 °F /  -5.2 °C 30.24in /  1023.9hPa Calm   1.0mph /  1.6km/h 34% 0.00in /  0mm 16.0 W/m2
06:28 50.2 °F /  10.1 °C 22.8 °F /  -5.1 °C 30.24in /  1023.9hPa Calm     34% 0.00in /  0mm 21.0 W/m2
06:34 50.2 °F /  10.1 °C 22.8 °F /  -5.1 °C 30.24in /  1023.9hPa Calm     34% 0.00in /  0mm 26.0 W/m2
06:41 50.2 °F /  10.1 °C 22.8 °F /  -5.1 °C 30.24in /  1023.9hPa Calm   1.0mph /  1.6km/h 34% 0.00in /  0mm 32.0 W/m2
06:47 50.5 °F /  10.3 °C 23.9 °F /  -4.5 °C 30.24in /  1023.9hPa Calm     35% 0.00in /  0mm 35.0 W/m2
06:53 50.7 °F /  10.4 °C 23.4 °F /  -4.8 °C 30.24in /  1023.9hPa Calm   1.0mph /  1.6km/h 34% 0.00in /  0mm 42.0 W/m2
06:59 51.3 °F /  10.7 °C 23.9 °F /  -4.5 °C 30.25in /  1024.3hPa Calm     34% 0.00in /  0mm 46.0 W/m2
07:05 51.8 °F /  11 °C 24.3 °F /  -4.3 °C 30.24in /  1023.9hPa Calm     34% 0.00in /  0mm 51.0 W/m2
07:11 52.3 °F /  11.3 °C 24.8 °F /  -4 °C 30.25in /  1024.3hPa Calm     34% 0.00in /  0mm 54.0 W/m2
07:17 52.9 °F /  11.6 °C 25.3 °F /  -3.7 °C 30.25in /  1024.3hPa Calm     34% 0.00in /  0mm 60.0 W/m2
07:23 53.4 °F /  11.9 °C 25.0 °F /  -3.9 °C 30.25in /  1024.3hPa Calm   1.0mph /  1.6km/h 33% 0.00in /  0mm 63.0 W/m2
07:29 54.1 °F /  12.3 °C 25.7 °F /  -3.5 °C 30.25in /  1024.3hPa ESE 0.9mph /  1.4km/h 1.0mph /  1.6km/h 33% 0.00in /  0mm 69.0 W/m2
07:35 54.9 °F /  12.7 °C 25.5 °F /  -3.6 °C 30.25in /  1024.3hPa Calm   1.0mph /  1.6km/h 32% 0.00in /  0mm 72.0 W/m2
07:41 55.4 °F /  13 °C 26.1 °F /  -3.3 °C 30.25in /  1024.3hPa Calm     32% 0.00in /  0mm 76.0 W/m2
07:48 55.9 °F /  13.3 °C 25.7 °F /  -3.5 °C 30.25in /  1024.3hPa Calm     31% 0.00in /  0mm 81.0 W/m2
07:54 56.7 °F /  13.7 °C 26.4 °F /  -3.1 °C 30.25in /  1024.3hPa Calm     31% 0.00in /  0mm 84.0 W/m2
08:00 57.7 °F /  14.3 °C 25.7 °F /  -3.5 °C 30.26in /  1024.6hPa Calm     29% 0.00in /  0mm 86.0 W/m2
08:06 58.8 °F /  14.9 °C 25.0 °F /  -3.9 °C 30.26in /  1024.6hPa Calm     27% 0.00in /  0mm 90.0 W/m2
08:12 59.7 °F /  15.4 °C 24.8 °F /  -4 °C 30.26in /  1024.6hPa Calm     26% 0.00in /  0mm 95.0 W/m2
08:18 61.0 °F /  16.1 °C 26.8 °F /  -2.9 °C 30.26in /  1024.6hPa Calm     27% 0.00in /  0mm 98.0 W/m2
08:24 62.1 °F /  16.7 °C 25.9 °F /  -3.4 °C 30.26in /  1024.6hPa Calm     25% 0.00in /  0mm 102.0 W/m2
08:30 63.3 °F /  17.4 °C 25.9 °F /  -3.4 °C 30.26in /  1024.6hPa Calm     24% 0.00in /  0mm 107.0 W/m2
08:37 64.6 °F /  18.1 °C 25.9 °F /  -3.4 °C 30.26in /  1024.6hPa Calm     23% 0.00in /  0mm 218.0 W/m2
08:42 66.0 °F /  18.9 °C 26.1 °F /  -3.3 °C 30.26in /  1024.6hPa Calm     22% 0.00in /  0mm 429.0 W/m2
08:48 67.6 °F /  19.8 °C 25.2 °F /  -3.8 °C 30.26in /  1024.6hPa Calm   3.0mph /  4.8km/h 20% 0.00in /  0mm 446.0 W/m2
08:54 69.3 °F /  20.7 °C 25.2 °F /  -3.8 °C 30.26in /  1024.6hPa Calm   1.0mph /  1.6km/h 19% 0.00in /  0mm 471.0 W/m2
09:00 70.5 °F /  21.4 °C 25.0 °F /  -3.9 °C 30.26in /  1024.6hPa West 0.9mph /  1.4km/h 2.0mph /  3.2km/h 18% 0.00in /  0mm 487.0 W/m2
09:06 72.0 °F /  22.2 °C 24.8 °F /  -4 °C 30.26in /  1024.6hPa NNE 2.0mph /  3.2km/h 2.0mph /  3.2km/h 17% 0.00in /  0mm 504.0 W/m2
09:12 73.2 °F /  22.9 °C 25.7 °F /  -3.5 °C 30.26in /  1024.6hPa Calm   2.0mph /  3.2km/h 17% 0.00in /  0mm 524.0 W/m2
09:18 74.1 °F /  23.4 °C 25.0 °F /  -3.9 °C 30.26in /  1024.6hPa Calm   5.0mph /  8km/h 16% 0.00in /  0mm 540.0 W/m2
09:24 75.0 °F /  23.9 °C 25.7 °F /  -3.5 °C 30.26in /  1024.6hPa NNW 4.0mph /  6.4km/h 4.0mph /  6.4km/h 16% 0.00in /  0mm 555.0 W/m2
09:30 75.7 °F /  24.3 °C 24.8 °F /  -4 °C 30.26in /  1024.6hPa Calm   5.0mph /  8km/h 15% 0.00in /  0mm 571.0 W/m2
09:36 75.9 °F /  24.4 °C 25.0 °F /  -3.9 °C 30.26in /  1024.6hPa Calm   2.0mph /  3.2km/h 15% 0.00in /  0mm 589.0 W/m2
09:42 76.3 °F /  24.6 °C 25.2 °F /  -3.8 °C 30.26in /  1024.6hPa West 2.0mph /  3.2km/h 4.0mph /  6.4km/h 15% 0.00in /  0mm 603.0 W/m2
09:48 76.3 °F /  24.6 °C 25.2 °F /  -3.8 °C 30.26in /  1024.6hPa NNW 2.0mph /  3.2km/h 4.0mph /  6.4km/h 15% 0.00in /  0mm 615.0 W/m2
09:54 76.6 °F /  24.8 °C 25.5 °F /  -3.6 °C 30.26in /  1024.6hPa NNW 4.0mph /  6.4km/h 5.0mph /  8km/h 15% 0.00in /  0mm 631.0 W/m2
10:00 76.8 °F /  24.9 °C 25.7 °F /  -3.5 °C 30.26in /  1024.6hPa NNE 2.0mph /  3.2km/h 6.0mph /  9.7km/h 15% 0.00in /  0mm 642.0 W/m2
10:06 77.2 °F /  25.1 °C 25.9 °F /  -3.4 °C 30.26in /  1024.6hPa WNW 0.9mph /  1.4km/h 4.0mph /  6.4km/h 15% 0.00in /  0mm 654.0 W/m2
10:12 77.4 °F /  25.2 °C 26.1 °F /  -3.3 °C 30.26in /  1024.6hPa Calm   2.0mph /  3.2km/h 15% 0.00in /  0mm 661.0 W/m2
10:18 77.7 °F /  25.4 °C 26.4 °F /  -3.1 °C 30.25in /  1024.3hPa NNW 0.9mph /  1.4km/h 4.0mph /  6.4km/h 15% 0.00in /  0mm 675.0 W/m2
10:24 78.3 °F /  25.7 °C 25.2 °F /  -3.8 °C 30.25in /  1024.3hPa NNW 2.9mph /  4.7km/h 8.0mph /  12.9km/h 14% 0.00in /  0mm 689.0 W/m2
10:30 78.6 °F /  25.9 °C 25.5 °F /  -3.6 °C 30.25in /  1024.3hPa Calm   3.0mph /  4.8km/h 14% 0.00in /  0mm 694.0 W/m2
10:36 79.2 °F /  26.2 °C 25.9 °F /  -3.4 °C 30.25in /  1024.3hPa NNE 2.9mph /  4.7km/h 4.0mph /  6.4km/h 14% 0.00in /  0mm 701.0 W/m2
10:43 79.2 °F /  26.2 °C 25.9 °F /  -3.4 °C 30.25in /  1024.3hPa Calm   2.0mph /  3.2km/h 14% 0.00in /  0mm 710.0 W/m2
10:49 79.3 °F /  26.3 °C 26.1 °F /  -3.3 °C 30.25in /  1024.3hPa NNE 7.0mph /  11.3km/h 7.0mph /  11.3km/h 14% 0.00in /  0mm 715.0 W/m2
10:55 79.5 °F /  26.4 °C 26.1 °F /  -3.3 °C 30.25in /  1024.3hPa NNW 2.0mph /  3.2km/h 6.0mph /  9.7km/h 14% 0.00in /  0mm 724.0 W/m2
11:01 79.5 °F /  26.4 °C 26.1 °F /  -3.3 °C 30.24in /  1023.9hPa Calm   7.0mph /  11.3km/h 14% 0.00in /  0mm 731.0 W/m2
11:07 79.9 °F /  26.6 °C 26.4 °F /  -3.1 °C 30.24in /  1023.9hPa NNW 6.0mph /  9.7km/h 6.0mph /  9.7km/h 14% 0.00in /  0mm 733.0 W/m2
11:13 80.1 °F /  26.7 °C 26.6 °F /  -3 °C 30.24in /  1023.9hPa North 6.9mph /  11.1km/h 7.0mph /  11.3km/h 14% 0.00in /  0mm 733.0 W/m2
11:19 80.1 °F /  26.7 °C 26.6 °F /  -3 °C 30.24in /  1023.9hPa NW 4.9mph /  7.9km/h 7.0mph /  11.3km/h 14% 0.00in /  0mm 740.0 W/m2
11:25 80.2 °F /  26.8 °C 26.8 °F /  -2.9 °C 30.23in /  1023.6hPa NNW 6.0mph /  9.7km/h 6.0mph /  9.7km/h 14% 0.00in /  0mm 744.0 W/m2
11:31 80.2 °F /  26.8 °C 28.4 °F /  -2 °C 30.23in /  1023.6hPa NNE 2.9mph /  4.7km/h 3.0mph /  4.8km/h 15% 0.00in /  0mm 747.0 W/m2
11:37 80.6 °F /  27 °C 27.0 °F /  -2.8 °C 30.23in /  1023.6hPa Calm   5.0mph /  8km/h 14% 0.00in /  0mm 749.0 W/m2
11:43 81.0 °F /  27.2 °C 27.3 °F /  -2.6 °C 30.23in /  1023.6hPa NNW 4.0mph /  6.4km/h 4.0mph /  6.4km/h 14% 0.00in /  0mm 751.0 W/m2
11:49 81.1 °F /  27.3 °C 27.5 °F /  -2.5 °C 30.23in /  1023.6hPa Calm   8.0mph /  12.9km/h 14% 0.00in /  0mm 754.0 W/m2
11:55 81.5 °F /  27.5 °C 27.7 °F /  -2.4 °C 30.23in /  1023.6hPa North 6.0mph /  9.7km/h 8.0mph /  12.9km/h 14% 0.00in /  0mm 758.0 W/m2
12:01 81.9 °F /  27.7 °C 28.0 °F /  -2.2 °C 30.22in /  1023.2hPa North 2.0mph /  3.2km/h 3.0mph /  4.8km/h 14% 0.00in /  0mm 761.0 W/m2
12:07 81.9 °F /  27.7 °C 28.0 °F /  -2.2 °C 30.22in /  1023.2hPa NNW 6.9mph /  11.1km/h 9.0mph /  14.5km/h 14% 0.00in /  0mm 751.0 W/m2
12:13 81.9 °F /  27.7 °C 28.0 °F /  -2.2 °C 30.22in /  1023.2hPa NW 0.9mph /  1.4km/h 7.0mph /  11.3km/h 14% 0.00in /  0mm 735.0 W/m2
12:19 82.2 °F /  27.9 °C 28.2 °F /  -2.1 °C 30.21in /  1022.9hPa West 2.0mph /  3.2km/h 5.0mph /  8km/h 14% 0.00in /  0mm 728.0 W/m2
12:25 82.4 °F /  28 °C 28.4 °F /  -2 °C 30.21in /  1022.9hPa WNW 0.9mph /  1.4km/h 3.0mph /  4.8km/h 14% 0.00in /  0mm 733.0 W/m2
12:31 82.8 °F /  28.2 °C 27.0 °F /  -2.8 °C 30.21in /  1022.9hPa Calm   6.0mph /  9.7km/h 13% 0.00in /  0mm 744.0 W/m2
12:37 82.9 °F /  28.3 °C 28.8 °F /  -1.8 °C 30.21in /  1022.9hPa West 4.9mph /  7.9km/h 7.0mph /  11.3km/h 14% 0.00in /  0mm 738.0 W/m2
12:43 83.1 °F /  28.4 °C 28.9 °F /  -1.7 °C 30.20in /  1022.6hPa NNW 6.0mph /  9.7km/h 6.0mph /  9.7km/h 14% 0.00in /  0mm 733.0 W/m2
12:49 83.5 °F /  28.6 °C 27.5 °F /  -2.5 °C 30.20in /  1022.6hPa NW 4.9mph /  7.9km/h 9.0mph /  14.5km/h 13% 0.00in /  0mm 733.0 W/m2
12:55 83.5 °F /  28.6 °C 29.3 °F /  -1.5 °C 30.20in /  1022.6hPa WNW 0.9mph /  1.4km/h 10.0mph /  16.1km/h 14% 0.00in /  0mm 717.0 W/m2
13:01 83.7 °F /  28.7 °C 29.5 °F /  -1.4 °C 30.19in /  1022.2hPa NNW 2.9mph /  4.7km/h 7.0mph /  11.3km/h 14% 0.00in /  0mm 707.0 W/m2
13:07 83.8 °F /  28.8 °C 29.5 °F /  -1.4 °C 30.19in /  1022.2hPa West 0.9mph /  1.4km/h 5.0mph /  8km/h 14% 0.00in /  0mm 701.0 W/m2
13:13 83.7 °F /  28.7 °C 29.5 °F /  -1.4 °C 30.19in /  1022.2hPa West 4.9mph /  7.9km/h 7.0mph /  11.3km/h 14% 0.00in /  0mm 689.0 W/m2
13:19 83.5 °F /  28.6 °C 30.9 °F /  -0.6 °C 30.19in /  1022.2hPa WNW 0.9mph /  1.4km/h 5.0mph /  8km/h 15% 0.00in /  0mm 682.0 W/m2
13:25 83.5 °F /  28.6 °C 30.9 °F /  -0.6 °C 30.18in /  1021.9hPa NNW 0.9mph /  1.4km/h 8.0mph /  12.9km/h 15% 0.00in /  0mm 673.0 W/m2
13:31 83.5 °F /  28.6 °C 30.9 °F /  -0.6 °C 30.18in /  1021.9hPa Calm   3.0mph /  4.8km/h 15% 0.00in /  0mm 652.0 W/m2
13:37 83.8 °F /  28.8 °C 31.3 °F /  -0.4 °C 30.18in /  1021.9hPa North 2.0mph /  3.2km/h 7.0mph /  11.3km/h 15% 0.00in /  0mm 640.0 W/m2
13:43 84.0 °F /  28.9 °C 31.5 °F /  -0.3 °C 30.18in /  1021.9hPa NNE 6.9mph /  11.1km/h 8.0mph /  12.9km/h 15% 0.00in /  0mm 629.0 W/m2
13:49 84.0 °F /  28.9 °C 31.5 °F /  -0.3 °C 30.18in /  1021.9hPa WSW 2.0mph /  3.2km/h 10.0mph /  16.1km/h 15% 0.00in /  0mm 601.0 W/m2
13:55 83.5 °F /  28.6 °C 32.5 °F /  0.3 °C 30.17in /  1021.6hPa WNW 4.0mph /  6.4km/h 9.0mph /  14.5km/h 16% 0.00in /  0mm 596.0 W/m2
14:01 83.5 °F /  28.6 °C 30.9 °F /  -0.6 °C 30.17in /  1021.6hPa West 0.9mph /  1.4km/h 8.0mph /  12.9km/h 15% 0.00in /  0mm 582.0 W/m2
14:07 83.7 °F /  28.7 °C 31.1 °F /  -0.5 °C 30.17in /  1021.6hPa WNW 2.9mph /  4.7km/h 9.0mph /  14.5km/h 15% 0.00in /  0mm 570.0 W/m2
14:13 83.7 °F /  28.7 °C 31.1 °F /  -0.5 °C 30.17in /  1021.6hPa West 6.0mph /  9.7km/h 9.0mph /  14.5km/h 15% 0.00in /  0mm 554.0 W/m2
14:19 83.3 °F /  28.5 °C 30.7 °F /  -0.7 °C 30.17in /  1021.6hPa WNW 2.9mph /  4.7km/h 8.0mph /  12.9km/h 15% 0.00in /  0mm 538.0 W/m2
14:25 83.5 °F /  28.6 °C 30.9 °F /  -0.6 °C 30.17in /  1021.6hPa NNW 4.9mph /  7.9km/h 10.0mph /  16.1km/h 15% 0.00in /  0mm 519.0 W/m2
14:31 83.5 °F /  28.6 °C 30.9 °F /  -0.6 °C 30.17in /  1021.6hPa WNW 2.0mph /  3.2km/h 5.0mph /  8km/h 15% 0.00in /  0mm 499.0 W/m2
14:37 83.7 °F /  28.7 °C 31.1 °F /  -0.5 °C 30.17in /  1021.6hPa West 2.9mph /  4.7km/h 7.0mph /  11.3km/h 15% 0.00in /  0mm 492.0 W/m2
14:43 83.7 °F /  28.7 °C 31.1 °F /  -0.5 °C 30.17in /  1021.6hPa West 0.9mph /  1.4km/h 5.0mph /  8km/h 15% 0.00in /  0mm 468.0 W/m2
14:49 83.7 °F /  28.7 °C 31.1 °F /  -0.5 °C 30.16in /  1021.2hPa Calm   7.0mph /  11.3km/h 15% 0.00in /  0mm 452.0 W/m2
14:55 83.5 °F /  28.6 °C 30.9 °F /  -0.6 °C 30.17in /  1021.6hPa WSW 2.0mph /  3.2km/h 5.0mph /  8km/h 15% 0.00in /  0mm 427.0 W/m2
15:01 83.3 °F /  28.5 °C 30.7 °F /  -0.7 °C 30.17in /  1021.6hPa West 2.9mph /  4.7km/h 5.0mph /  8km/h 15% 0.00in /  0mm 417.0 W/m2
15:07 83.3 °F /  28.5 °C 30.7 °F /  -0.7 °C 30.17in /  1021.6hPa West 2.9mph /  4.7km/h 4.0mph /  6.4km/h 15% 0.00in /  0mm 396.0 W/m2
15:13 83.3 °F /  28.5 °C 30.7 °F /  -0.7 °C 30.17in /  1021.6hPa NW 4.0mph /  6.4km/h 9.0mph /  14.5km/h 15% 0.00in /  0mm 366.0 W/m2
15:19 83.3 °F /  28.5 °C 30.7 °F /  -0.7 °C 30.16in /  1021.2hPa West 2.9mph /  4.7km/h 8.0mph /  12.9km/h 15% 0.00in /  0mm 360.0 W/m2
15:25 83.1 °F /  28.4 °C 30.7 °F /  -0.7 °C 30.16in /  1021.2hPa Calm   6.0mph /  9.7km/h 15% 0.00in /  0mm 336.0 W/m2
15:31 82.9 °F /  28.3 °C 30.6 °F /  -0.8 °C 30.17in /  1021.6hPa NNW 2.9mph /  4.7km/h 8.0mph /  12.9km/h 15% 0.00in /  0mm 323.0 W/m2
15:37 82.8 °F /  28.2 °C 30.4 °F /  -0.9 °C 30.17in /  1021.6hPa West 4.9mph /  7.9km/h 5.0mph /  8km/h 15% 0.00in /  0mm 304.0 W/m2
15:43 82.8 °F /  28.2 °C 30.4 °F /  -0.9 °C 30.17in /  1021.6hPa WNW 4.0mph /  6.4km/h 5.0mph /  8km/h 15% 0.00in /  0mm 285.0 W/m2
15:49 82.6 °F /  28.1 °C 30.2 °F /  -1 °C 30.16in /  1021.2hPa WSW 4.0mph /  6.4km/h 9.0mph /  14.5km/h 15% 0.00in /  0mm 262.0 W/m2
15:55 82.0 °F /  27.8 °C 29.8 °F /  -1.2 °C 30.17in /  1021.6hPa Calm   7.0mph /  11.3km/h 15% 0.00in /  0mm 244.0 W/m2
16:01 81.9 °F /  27.7 °C 29.7 °F /  -1.3 °C 30.17in /  1021.6hPa West 2.0mph /  3.2km/h 7.0mph /  11.3km/h 15% 0.00in /  0mm 225.0 W/m2
16:07 81.5 °F /  27.5 °C 29.5 °F /  -1.4 °C 30.17in /  1021.6hPa SSW 4.0mph /  6.4km/h 4.0mph /  6.4km/h 15% 0.00in /  0mm 204.0 W/m2
16:13 81.3 °F /  27.4 °C 29.3 °F /  -1.5 °C 30.17in /  1021.6hPa Calm   3.0mph /  4.8km/h 15% 0.00in /  0mm 190.0 W/m2
16:19 81.1 °F /  27.3 °C 30.7 °F /  -0.7 °C 30.17in /  1021.6hPa West 0.9mph /  1.4km/h 4.0mph /  6.4km/h 16% 0.00in /  0mm 148.0 W/m2
16:25 81.1 °F /  27.3 °C 29.1 °F /  -1.6 °C 30.17in /  1021.6hPa Calm   3.0mph /  4.8km/h 15% 0.00in /  0mm 113.0 W/m2
16:31 80.8 °F /  27.1 °C 30.4 °F /  -0.9 °C 30.17in /  1021.6hPa WNW 2.9mph /  4.7km/h 7.0mph /  11.3km/h 16% 0.00in /  0mm 98.0 W/m2
16:37 80.4 °F /  26.9 °C 30.2 °F /  -1 °C 30.17in /  1021.6hPa WNW 0.9mph /  1.4km/h 4.0mph /  6.4km/h 16% 0.00in /  0mm 69.0 W/m2
16:43 80.1 °F /  26.7 °C 29.8 °F /  -1.2 °C 30.18in /  1021.9hPa WNW 0.9mph /  1.4km/h 6.0mph /  9.7km/h 16% 0.00in /  0mm 69.0 W/m2
16:49 79.9 °F /  26.6 °C 29.7 °F /  -1.3 °C 30.18in /  1021.9hPa West 2.9mph /  4.7km/h 3.0mph /  4.8km/h 16% 0.00in /  0mm 77.0 W/m2
16:55 79.7 °F /  26.5 °C 29.5 °F /  -1.4 °C 30.18in /  1021.9hPa West 5.0mph /  8km/h 5.0mph /  8km/h 16% 0.00in /  0mm 53.0 W/m2
17:01 79.3 °F /  26.3 °C 29.3 °F /  -1.5 °C 30.18in /  1021.9hPa West 2.0mph /  3.2km/h 3.0mph /  4.8km/h 16% 0.00in /  0mm 44.0 W/m2
17:07 79.2 °F /  26.2 °C 29.1 °F /  -1.6 °C 30.18in /  1021.9hPa Calm   5.0mph /  8km/h 16% 0.00in /  0mm 32.0 W/m2
17:13 78.6 °F /  25.9 °C 28.8 °F /  -1.8 °C 30.18in /  1021.9hPa WSW 0.9mph /  1.4km/h 7.0mph /  11.3km/h 16% 0.00in /  0mm 26.0 W/m2
17:19 78.3 °F /  25.7 °C 28.4 °F /  -2 °C 30.19in /  1022.2hPa Calm   3.0mph /  4.8km/h 16% 0.00in /  0mm 19.0 W/m2
17:25 77.7 °F /  25.4 °C 27.9 °F /  -2.3 °C 30.19in /  1022.2hPa West 2.0mph /  3.2km/h 5.0mph /  8km/h 16% 0.00in /  0mm 14.0 W/m2
17:31 77.2 °F /  25.1 °C 28.9 °F /  -1.7 °C 30.19in /  1022.2hPa WNW 0.9mph /  1.4km/h 6.0mph /  9.7km/h 17% 0.00in /  0mm 9.0 W/m2
17:37 76.8 °F /  24.9 °C 28.8 °F /  -1.8 °C 30.19in /  1022.2hPa WNW 0.9mph /  1.4km/h 2.0mph /  3.2km/h 17% 0.00in /  0mm 5.0 W/m2
17:43 76.3 °F /  24.6 °C 29.7 °F /  -1.3 °C 30.19in /  1022.2hPa West 0.9mph /  1.4km/h 2.0mph /  3.2km/h 18% 0.00in /  0mm 0.0 W/m2
17:49 75.7 °F /  24.3 °C 29.3 °F /  -1.5 °C 30.20in /  1022.6hPa Calm   1.0mph /  1.6km/h 18% 0.00in /  0mm 0.0 W/m2
17:55 75.4 °F /  24.1 °C 28.9 °F /  -1.7 °C 30.20in /  1022.6hPa Calm   5.0mph /  8km/h 18% 0.00in /  0mm 0.0 W/m2
18:01 74.8 °F /  23.8 °C 28.4 °F /  -2 °C 30.20in /  1022.6hPa Calm   1.0mph /  1.6km/h 18% 0.00in /  0mm 0.0 W/m2
18:08 74.1 °F /  23.4 °C 27.9 °F /  -2.3 °C 30.20in /  1022.6hPa Calm     18% 0.00in /  0mm 0.0 W/m2
18:14 73.6 °F /  23.1 °C 28.8 °F /  -1.8 °C 30.20in /  1022.6hPa Calm     19% 0.00in /  0mm 0.0 W/m2
18:20 72.9 °F /  22.7 °C 28.2 °F /  -2.1 °C 30.21in /  1022.9hPa Calm     19% 0.00in /  0mm 0.0 W/m2
18:26 72.1 °F /  22.3 °C 27.7 °F /  -2.4 °C 30.21in /  1022.9hPa Calm   1.0mph /  1.6km/h 19% 0.00in /  0mm 0.0 W/m2
18:32 71.4 °F /  21.9 °C 28.2 °F /  -2.1 °C 30.21in /  1022.9hPa Calm     20% 0.00in /  0mm 0.0 W/m2
18:38 70.9 °F /  21.6 °C 28.9 °F /  -1.7 °C 30.21in /  1022.9hPa Calm     21% 0.00in /  0mm 0.0 W/m2
18:44 70.2 °F /  21.2 °C 28.4 °F /  -2 °C 30.22in /  1023.2hPa Calm     21% 0.00in /  0mm 0.0 W/m2
18:50 69.6 °F /  20.9 °C 29.1 °F /  -1.6 °C 30.22in /  1023.2hPa Calm     22% 0.00in /  0mm 0.0 W/m2
18:56 69.1 °F /  20.6 °C 28.6 °F /  -1.9 °C 30.22in /  1023.2hPa Calm     22% 0.00in /  0mm 0.0 W/m2
19:02 68.4 °F /  20.2 °C 28.0 °F /  -2.2 °C 30.23in /  1023.6hPa Calm   1.0mph /  1.6km/h 22% 0.00in /  0mm 0.0 W/m2
19:08 67.6 °F /  19.8 °C 28.6 °F /  -1.9 °C 30.23in /  1023.6hPa Calm     23% 0.00in /  0mm 0.0 W/m2
19:14 66.9 °F /  19.4 °C 28.9 °F /  -1.7 °C 30.23in /  1023.6hPa Calm     24% 0.00in /  0mm 0.0 W/m2
19:21 66.4 °F /  19.1 °C 28.4 °F /  -2 °C 30.24in /  1023.9hPa Calm     24% 0.00in /  0mm 0.0 W/m2
19:27 65.8 °F /  18.8 °C 28.0 °F /  -2.2 °C 30.24in /  1023.9hPa Calm     24% 0.00in /  0mm 0.0 W/m2
19:33 65.5 °F /  18.6 °C 27.7 °F /  -2.4 °C 30.24in /  1023.9hPa Calm   1.0mph /  1.6km/h 24% 0.00in /  0mm 0.0 W/m2
19:39 64.9 °F /  18.3 °C 27.3 °F /  -2.6 °C 30.24in /  1023.9hPa East 0.9mph /  1.4km/h 4.0mph /  6.4km/h 24% 0.00in /  0mm 0.0 W/m2
19:45 64.6 °F /  18.1 °C 28.0 °F /  -2.2 °C 30.25in /  1024.3hPa Calm   1.0mph /  1.6km/h 25% 0.00in /  0mm 0.0 W/m2
19:51 64.2 °F /  17.9 °C 27.7 °F /  -2.4 °C 30.25in /  1024.3hPa Calm     25% 0.00in /  0mm 0.0 W/m2
19:57 64.0 °F /  17.8 °C 27.5 °F /  -2.5 °C 30.25in /  1024.3hPa Calm   1.0mph /  1.6km/h 25% 0.00in /  0mm 0.0 W/m2
20:06 63.7 °F /  17.6 °C 27.1 °F /  -2.7 °C 30.25in /  1024.3hPa Calm   1.0mph /  1.6km/h 25% 0.00in /  0mm 0.0 W/m2
20:12 63.3 °F /  17.4 °C 27.9 °F /  -2.3 °C 30.26in /  1024.6hPa Calm   1.0mph /  1.6km/h 26% 0.00in /  0mm 0.0 W/m2
20:18 63.1 °F /  17.3 °C 27.7 °F /  -2.4 °C 30.26in /  1024.6hPa Calm   1.0mph /  1.6km/h 26% 0.00in /  0mm 0.0 W/m2
20:24 63.1 °F /  17.3 °C 27.7 °F /  -2.4 °C 30.26in /  1024.6hPa Calm   2.0mph /  3.2km/h 26% 0.00in /  0mm 0.0 W/m2
20:30 63.1 °F /  17.3 °C 26.8 °F /  -2.9 °C 30.26in /  1024.6hPa East 0.9mph /  1.4km/h 1.0mph /  1.6km/h 25% 0.00in /  0mm 0.0 W/m2
20:36 63.1 °F /  17.3 °C 26.8 °F /  -2.9 °C 30.26in /  1024.6hPa SE 0.9mph /  1.4km/h 3.0mph /  4.8km/h 25% 0.00in /  0mm 0.0 W/m2
20:42 63.1 °F /  17.3 °C 27.7 °F /  -2.4 °C 30.26in /  1024.6hPa Calm     26% 0.00in /  0mm 0.0 W/m2
20:49 62.8 °F /  17.1 °C 27.3 °F /  -2.6 °C 30.26in /  1024.6hPa ESE 0.9mph /  1.4km/h 1.0mph /  1.6km/h 26% 0.00in /  0mm 0.0 W/m2
20:55 62.4 °F /  16.9 °C 27.1 °F /  -2.7 °C 30.27in /  1024.9hPa East 2.0mph /  3.2km/h 5.0mph /  8km/h 26% 0.00in /  0mm 0.0 W/m2
21:01 62.4 °F /  16.9 °C 27.1 °F /  -2.7 °C 30.27in /  1024.9hPa Calm   1.0mph /  1.6km/h 26% 0.00in /  0mm 0.0 W/m2
21:07 62.4 °F /  16.9 °C 27.1 °F /  -2.7 °C 30.27in /  1024.9hPa ESE 2.9mph /  4.7km/h 3.0mph /  4.8km/h 26% 0.00in /  0mm 0.0 W/m2
21:13 62.2 °F /  16.8 °C 27.0 °F /  -2.8 °C 30.27in /  1024.9hPa Calm   2.0mph /  3.2km/h 26% 0.00in /  0mm 0.0 W/m2
21:19 61.9 °F /  16.6 °C 26.6 °F /  -3 °C 30.27in /  1024.9hPa ESE 2.0mph /  3.2km/h 3.0mph /  4.8km/h 26% 0.00in /  0mm 0.0 W/m2
21:25 61.9 °F /  16.6 °C 26.6 °F /  -3 °C 30.27in /  1024.9hPa Calm   2.0mph /  3.2km/h 26% 0.00in /  0mm 0.0 W/m2
21:32 61.3 °F /  16.3 °C 26.2 °F /  -3.2 °C 30.27in /  1024.9hPa East 2.0mph /  3.2km/h 4.0mph /  6.4km/h 26% 0.00in /  0mm 0.0 W/m2
21:38 61.0 °F /  16.1 °C 26.8 °F /  -2.9 °C 30.27in /  1024.9hPa Calm     27% 0.00in /  0mm 0.0 W/m2
21:44 60.6 °F /  15.9 °C 26.4 °F /  -3.1 °C 30.27in /  1024.9hPa Calm   1.0mph /  1.6km/h 27% 0.00in /  0mm 0.0 W/m2
21:50 60.4 °F /  15.8 °C 26.2 °F /  -3.2 °C 30.27in /  1024.9hPa Calm   1.0mph /  1.6km/h 27% 0.00in /  0mm 0.0 W/m2
21:56 60.1 °F /  15.6 °C 26.1 °F /  -3.3 °C 30.27in /  1024.9hPa Calm     27% 0.00in /  0mm 0.0 W/m2
22:02 59.7 °F /  15.4 °C 25.7 °F /  -3.5 °C 30.27in /  1024.9hPa Calm   2.0mph /  3.2km/h 27% 0.00in /  0mm 0.0 W/m2
22:08 59.7 °F /  15.4 °C 25.7 °F /  -3.5 °C 30.27in /  1024.9hPa Calm   1.0mph /  1.6km/h 27% 0.00in /  0mm 0.0 W/m2
22:15 59.5 °F /  15.3 °C 25.5 °F /  -3.6 °C 30.28in /  1025.3hPa Calm     27% 0.00in /  0mm 0.0 W/m2
22:21 59.5 °F /  15.3 °C 25.5 °F /  -3.6 °C 30.28in /  1025.3hPa Calm     27% 0.00in /  0mm 0.0 W/m2
22:27 59.5 °F /  15.3 °C 25.5 °F /  -3.6 °C 30.27in /  1024.9hPa Calm   1.0mph /  1.6km/h 27% 0.00in /  0mm 0.0 W/m2
22:33 59.4 °F /  15.2 °C 25.3 °F /  -3.7 °C 30.27in /  1024.9hPa Calm   1.0mph /  1.6km/h 27% 0.00in /  0mm 0.0 W/m2
22:39 59.4 °F /  15.2 °C 25.3 °F /  -3.7 °C 30.27in /  1024.9hPa Calm   1.0mph /  1.6km/h 27% 0.00in /  0mm 0.0 W/m2
22:45 59.2 °F /  15.1 °C 25.2 °F /  -3.8 °C 30.27in /  1024.9hPa ESE 0.9mph /  1.4km/h 1.0mph /  1.6km/h 27% 0.00in /  0mm 0.0 W/m2
22:51 59.2 °F /  15.1 °C 25.2 °F /  -3.8 °C 30.27in /  1024.9hPa Calm     27% 0.00in /  0mm 0.0 W/m2
22:57 58.8 °F /  14.9 °C 25.7 °F /  -3.5 °C 30.27in /  1024.9hPa Calm     28% 0.00in /  0mm 0.0 W/m2
23:03 58.5 °F /  14.7 °C 25.5 °F /  -3.6 °C 30.27in /  1024.9hPa Calm     28% 0.00in /  0mm 0.0 W/m2
23:09 58.3 °F /  14.6 °C 26.2 °F /  -3.2 °C 30.27in /  1024.9hPa Calm     29% 0.00in /  0mm 0.0 W/m2
23:16 57.9 °F /  14.4 °C 25.0 °F /  -3.9 °C 30.27in /  1024.9hPa East 0.9mph /  1.4km/h 2.0mph /  3.2km/h 28% 0.00in /  0mm 0.0 W/m2
23:22 57.7 °F /  14.3 °C 24.8 °F /  -4 °C 30.27in /  1024.9hPa Calm     28% 0.00in /  0mm 0.0 W/m2
23:28 57.6 °F /  14.2 °C 24.6 °F /  -4.1 °C 30.27in /  1024.9hPa ENE 0.9mph /  1.4km/h 5.0mph /  8km/h 28% 0.00in /  0mm 0.0 W/m2
23:34 57.6 °F /  14.2 °C 24.6 °F /  -4.1 °C 30.27in /  1024.9hPa Calm   1.0mph /  1.6km/h 28% 0.00in /  0mm 0.0 W/m2
23:40 57.6 °F /  14.2 °C 24.6 °F /  -4.1 °C 30.27in /  1024.9hPa Calm   1.0mph /  1.6km/h 28% 0.00in /  0mm 0.0 W/m2
23:46 57.6 °F /  14.2 °C 25.5 °F /  -3.6 °C 30.27in /  1024.9hPa Calm   1.0mph /  1.6km/h 29% 0.00in /  0mm 0.0 W/m2
23:52 57.7 °F /  14.3 °C 24.8 °F /  -4 °C 30.27in /  1024.9hPa East 2.9mph /  4.7km/h 6.0mph /  9.7km/h 28% 0.00in /  0mm 0.0 W/m2
23:58 58.3 °F /  14.6 °C 25.3 °F /  -3.7 °C 30.27in /  1024.9hPa ENE 0.9mph /  1.4km/h 3.0mph /  4.8km/h 28% 0.00in /  0mm 0.0 W/m2
Olympia, Windhoek, Namibia
Compliments of Weather Underground - 3 mb